createdAt,value
2022-12-26T00:01:38.951Z,98.00
2022-12-26T00:04:51.868Z,98.25
2022-12-26T00:06:57.338Z,97.74
2022-12-26T00:09:25.725Z,98.02
2022-12-26T00:11:54.548Z,97.65
2022-12-26T00:14:23.273Z,97.75
2022-12-26T00:16:53.386Z,97.00
2022-12-26T00:19:21.656Z,97.60
2022-12-26T00:21:49.903Z,97.15
2022-12-26T00:24:18.314Z,96.69
2022-12-26T00:26:49.844Z,97.34
2022-12-26T00:29:18.854Z,97.32
2022-12-26T00:31:49.705Z,97.67
2022-12-26T00:34:19.476Z,97.63
2022-12-26T00:36:50.885Z,97.39
2022-12-26T00:39:21.724Z,97.68
2022-12-26T00:41:51.306Z,97.31
2022-12-26T00:44:19.374Z,97.30
2022-12-26T00:46:47.615Z,97.08
2022-12-26T00:49:16.166Z,96.88
2022-12-26T00:51:46.135Z,97.25
2022-12-26T00:54:14.228Z,96.95
2022-12-26T00:56:43.541Z,96.91
2022-12-26T00:59:12.200Z,97.20
2022-12-26T01:01:40.436Z,97.22
2022-12-26T01:04:09.154Z,96.84
2022-12-26T01:06:38.572Z,97.20
2022-12-26T01:09:13.414Z,96.84
2022-12-26T01:11:42.659Z,97.15
2022-12-26T01:14:12.717Z,97.67
2022-12-26T01:16:46.163Z,97.29
2022-12-26T01:19:16.644Z,96.93
2022-12-26T01:21:45.705Z,96.62
2022-12-26T01:24:17.171Z,96.47
2022-12-26T01:26:46.160Z,96.50
2022-12-26T01:29:14.433Z,96.86
2022-12-26T01:31:43.080Z,96.47
2022-12-26T01:34:11.853Z,96.47
2022-12-26T01:36:40.374Z,96.30
2022-12-26T01:39:08.996Z,95.65
2022-12-26T01:41:38.755Z,95.20
2022-12-26T01:44:55.479Z,95.61
2022-12-26T01:47:25.430Z,95.51
2022-12-26T01:49:56.761Z,95.30
2022-12-26T01:52:29.646Z,95.45
2022-12-26T01:54:57.952Z,95.29
2022-12-26T01:57:31.671Z,95.16
2022-12-26T02:00:02.964Z,95.30
2022-12-26T02:02:56.952Z,95.24
2022-12-26T02:05:37.759Z,94.62
2022-12-26T02:08:10.346Z,95.03
2022-12-26T02:10:42.794Z,94.91
2022-12-26T02:13:15.026Z,94.48
2022-12-26T02:15:43.311Z,95.14
2022-12-26T02:18:13.140Z,94.77
2022-12-26T02:20:46.305Z,94.83
2022-12-26T02:23:49.609Z,94.44
2022-12-26T02:26:47.772Z,94.33
2022-12-26T02:29:43.983Z,93.90
2022-12-26T02:32:20.326Z,94.08
2022-12-26T02:34:55.683Z,94.54
2022-12-26T02:37:33.204Z,94.50
2022-12-26T02:40:14.455Z,93.78
2022-12-26T02:42:53.417Z,93.73
2022-12-26T02:45:45.962Z,93.66
2022-12-26T02:48:21.805Z,93.64
2022-12-26T02:51:17.630Z,93.55
2022-12-26T02:54:11.393Z,93.90
2022-12-26T02:57:02.137Z,93.85
2022-12-26T02:59:57.452Z,93.88
2022-12-26T03:02:48.585Z,93.81
2022-12-26T03:05:40.949Z,94.00
2022-12-26T03:08:31.790Z,94.17
2022-12-26T03:11:18.867Z,93.32
2022-12-26T03:13:48.980Z,93.41
2022-12-26T03:16:36.049Z,93.18
2022-12-26T03:19:09.511Z,92.34
2022-12-26T03:21:41.809Z,92.51
2022-12-26T03:24:17.056Z,92.54
2022-12-26T03:26:52.000Z,92.05
2022-12-26T03:29:42.363Z,91.98
2022-12-26T03:32:12.868Z,90.94
2022-12-26T03:34:44.615Z,91.47
2022-12-26T03:37:47.281Z,91.02
2022-12-26T03:40:42.472Z,91.21
2022-12-26T03:43:38.208Z,90.07
2022-12-26T03:46:29.793Z,89.47
2022-12-26T03:49:19.646Z,89.45
2022-12-26T03:52:10.732Z,89.63
2022-12-26T03:55:04.668Z,89.05
2022-12-26T03:57:54.775Z,89.47
2022-12-26T04:00:41.365Z,88.89
2022-12-26T04:03:31.362Z,89.43
2022-12-26T04:06:17.820Z,88.90
2022-12-26T04:09:07.343Z,89.28
2022-12-26T04:11:55.339Z,89.59
2022-12-26T04:14:54.840Z,89.50
2022-12-26T04:17:48.073Z,89.28
2022-12-26T04:20:21.066Z,89.13
2022-12-26T04:23:13.693Z,88.88
2022-12-26T04:26:04.291Z,88.99
2022-12-26T04:28:51.595Z,89.12
2022-12-26T04:31:44.531Z,88.54
2022-12-26T04:34:38.635Z,88.75
2022-12-26T04:37:27.933Z,88.70
2022-12-26T04:40:15.745Z,88.88
2022-12-26T04:43:48.492Z,88.45
2022-12-26T04:45:56.822Z,88.72
2022-12-26T04:48:49.285Z,88.73
2022-12-26T04:51:17.488Z,88.72
2022-12-26T04:53:48.698Z,88.07
2022-12-26T04:56:19.724Z,88.75
2022-12-26T04:58:48.859Z,88.12
2022-12-26T05:01:38.142Z,87.93
2022-12-26T05:04:23.400Z,88.35
2022-12-26T05:07:09.336Z,87.52
2022-12-26T05:09:40.764Z,88.18
2022-12-26T05:12:11.173Z,88.13
2022-12-26T05:14:39.594Z,88.17
2022-12-26T05:17:28.411Z,87.58
2022-12-26T05:20:13.847Z,88.14
2022-12-26T05:23:02.809Z,88.11
2022-12-26T05:25:56.847Z,88.36
2022-12-26T05:28:44.363Z,88.34
2022-12-26T05:31:15.784Z,87.70
2022-12-26T05:34:04.548Z,88.04
2022-12-26T05:36:38.412Z,87.94
2022-12-26T05:39:08.480Z,88.03
2022-12-26T05:41:40.710Z,87.40
2022-12-26T05:44:09.592Z,88.02
2022-12-26T05:46:38.664Z,87.67
2022-12-26T05:49:09.073Z,87.63
2022-12-26T05:51:37.675Z,87.83
2022-12-26T05:54:06.389Z,87.75
2022-12-26T05:56:35.231Z,87.37
2022-12-26T05:59:05.676Z,87.97
2022-12-26T06:01:34.305Z,88.04
2022-12-26T06:04:03.496Z,87.48
2022-12-26T06:06:33.128Z,87.51
2022-12-26T06:09:01.463Z,87.32
2022-12-26T06:11:30.732Z,87.46
2022-12-26T06:14:00.192Z,87.10
2022-12-26T06:16:28.544Z,86.76
2022-12-26T06:18:57.320Z,87.34
2022-12-26T06:21:26.230Z,86.72
2022-12-26T06:23:56.068Z,87.08
2022-12-26T06:26:24.723Z,87.38
2022-12-26T06:28:54.955Z,87.37
2022-12-26T06:31:24.856Z,86.97
2022-12-26T06:33:58.055Z,86.51
2022-12-26T06:36:27.620Z,86.80
2022-12-26T06:38:59.057Z,87.38
2022-12-26T06:41:32.180Z,86.72
2022-12-26T06:44:00.214Z,86.89
2022-12-26T06:46:28.879Z,87.17
2022-12-26T06:48:56.871Z,86.56
2022-12-26T06:51:28.409Z,86.72
2022-12-26T06:53:56.851Z,86.47
2022-12-26T06:56:28.890Z,86.80
2022-12-26T06:58:58.296Z,86.63
2022-12-26T07:01:28.987Z,86.52
2022-12-26T07:03:57.601Z,86.47
2022-12-26T07:06:27.079Z,86.31
2022-12-26T07:08:58.073Z,86.48
2022-12-26T07:11:29.858Z,86.47
2022-12-26T07:13:58.026Z,86.38
2022-12-26T07:16:26.395Z,86.52
2022-12-26T07:18:56.631Z,86.99
2022-12-26T07:21:25.445Z,87.00
2022-12-26T07:23:55.068Z,86.63
2022-12-26T07:26:23.682Z,86.53
2022-12-26T07:28:56.017Z,86.84
2022-12-26T07:31:28.049Z,86.21
2022-12-26T07:33:58.006Z,86.71
2022-12-26T07:36:27.097Z,86.42
2022-12-26T07:38:56.852Z,86.57
2022-12-26T07:41:42.977Z,86.62
2022-12-26T07:44:14.716Z,86.99
2022-12-26T07:46:43.027Z,87.16
2022-12-26T07:49:13.212Z,87.03
2022-12-26T07:51:42.398Z,86.93
2022-12-26T07:54:12.091Z,87.21
2022-12-26T07:56:40.803Z,87.18
2022-12-26T07:59:09.441Z,87.24
2022-12-26T08:01:39.364Z,86.65
2022-12-26T08:04:09.190Z,87.02
2022-12-26T08:06:38.839Z,87.23
2022-12-26T08:09:09.491Z,86.65
2022-12-26T08:11:37.627Z,86.80
2022-12-26T08:14:05.513Z,86.93
2022-12-26T08:16:34.668Z,86.85
2022-12-26T08:19:04.985Z,86.71
2022-12-26T08:21:33.548Z,86.99
2022-12-26T08:24:01.592Z,86.91
2022-12-26T08:26:30.703Z,87.18
2022-12-26T08:28:59.222Z,86.99
2022-12-26T08:31:27.341Z,86.98
2022-12-26T08:33:56.909Z,86.83
2022-12-26T08:36:26.689Z,87.22
2022-12-26T08:38:55.399Z,86.41
2022-12-26T08:41:24.575Z,86.55
2022-12-26T08:46:43.912Z,86.33
2022-12-26T08:49:12.241Z,86.40
2022-12-26T08:51:42.029Z,86.63
2022-12-26T08:54:11.378Z,86.78
2022-12-26T08:56:39.742Z,87.16
2022-12-26T08:59:09.033Z,86.58
2022-12-26T09:01:38.153Z,86.58
2022-12-26T09:04:07.627Z,86.64
2022-12-26T09:06:37.435Z,86.96
2022-12-26T09:09:09.644Z,87.42
2022-12-26T09:11:37.697Z,87.03
2022-12-26T09:14:08.031Z,86.69
2022-12-26T09:16:49.149Z,86.95
2022-12-26T09:19:18.946Z,86.89
2022-12-26T09:21:47.657Z,86.46
2022-12-26T09:24:19.149Z,87.22
2022-12-26T09:26:47.136Z,86.60
2022-12-26T09:29:16.332Z,86.51
2022-12-26T09:31:44.387Z,87.27
2022-12-26T09:34:12.879Z,87.08
2022-12-26T09:36:41.401Z,86.56
2022-12-26T09:39:11.556Z,86.07
2022-12-26T09:42:06.399Z,85.95
2022-12-26T09:44:44.988Z,86.02
2022-12-26T09:47:33.802Z,85.18
2022-12-26T09:50:08.363Z,85.85
2022-12-26T09:52:45.078Z,84.55
2022-12-26T09:55:33.396Z,84.90
2022-12-26T09:58:06.903Z,84.50
2022-12-26T10:00:40.065Z,85.01
2022-12-26T10:03:10.785Z,84.14
2022-12-26T10:05:42.286Z,83.64
2022-12-26T10:08:25.681Z,83.79
2022-12-26T10:11:02.112Z,83.98
2022-12-26T10:13:38.909Z,83.45
2022-12-26T10:16:11.745Z,83.25
2022-12-26T10:18:49.587Z,82.81
2022-12-26T10:21:28.799Z,82.25
2022-12-26T10:24:03.025Z,82.14
2022-12-26T10:26:33.205Z,82.68
2022-12-26T10:29:13.656Z,83.13
2022-12-26T10:31:43.939Z,82.87
2022-12-26T10:34:18.873Z,82.73
2022-12-26T10:36:49.323Z,83.31
2022-12-26T10:39:23.244Z,83.10
2022-12-26T10:41:54.162Z,83.78
2022-12-26T10:44:27.521Z,84.07
2022-12-26T10:47:08.116Z,83.52
2022-12-26T10:49:37.084Z,84.15
2022-12-26T10:52:05.537Z,83.92
2022-12-26T10:54:34.584Z,83.68
2022-12-26T10:57:03.733Z,83.49
2022-12-26T10:59:41.736Z,83.09
2022-12-26T11:02:25.760Z,82.98
2022-12-26T11:05:18.440Z,83.07
2022-12-26T11:07:58.925Z,83.07
2022-12-26T11:10:29.466Z,83.09
2022-12-26T11:13:01.996Z,82.96
2022-12-26T11:15:34.149Z,82.87
2022-12-26T11:18:17.906Z,82.72
2022-12-26T11:20:46.575Z,82.94
2022-12-26T11:23:27.332Z,81.95
2022-12-26T11:25:56.485Z,82.10
2022-12-26T11:28:28.639Z,82.24
2022-12-26T11:30:58.675Z,81.76
2022-12-26T11:33:31.204Z,82.27
2022-12-26T11:36:07.400Z,82.43
2022-12-26T11:38:45.670Z,82.35
2022-12-26T11:41:37.015Z,81.82
2022-12-26T11:44:14.367Z,81.92
2022-12-26T11:46:48.806Z,81.94
2022-12-26T11:49:24.313Z,82.44
2022-12-26T11:51:59.350Z,82.27
2022-12-26T11:54:31.300Z,82.03
2022-12-26T11:57:06.738Z,81.94
2022-12-26T11:59:34.629Z,81.65
2022-12-26T12:02:24.824Z,81.79
2022-12-26T12:04:57.982Z,82.11
2022-12-26T12:07:42.644Z,82.28
2022-12-26T12:11:00.056Z,82.17
2022-12-26T12:13:42.448Z,82.06
2022-12-26T12:16:25.919Z,82.17
2022-12-26T12:19:07.824Z,82.33
2022-12-26T12:21:41.136Z,82.98
2022-12-26T12:24:25.153Z,82.58
2022-12-26T12:27:04.703Z,83.60
2022-12-26T12:29:47.075Z,83.15
2022-12-26T12:32:18.847Z,83.02
2022-12-26T12:35:09.405Z,83.25
2022-12-26T12:37:46.164Z,83.99
2022-12-26T12:40:26.464Z,83.56
2022-12-26T12:43:00.859Z,83.17
2022-12-26T12:45:33.707Z,83.21
2022-12-26T12:48:26.943Z,83.37
2022-12-26T12:51:02.169Z,83.06
2022-12-26T12:53:44.826Z,82.71
2022-12-26T12:56:20.753Z,83.38
2022-12-26T12:58:56.301Z,82.62
2022-12-26T13:01:28.332Z,82.45
2022-12-26T13:04:02.776Z,82.45
2022-12-26T13:06:37.555Z,81.91
2022-12-26T13:09:11.250Z,81.79
2022-12-26T13:11:46.130Z,82.22
2022-12-26T13:14:19.651Z,82.64
2022-12-26T13:16:54.086Z,82.00
2022-12-26T13:19:25.610Z,82.33
2022-12-26T13:21:57.910Z,82.39
2022-12-26T13:24:34.474Z,82.68
2022-12-26T13:27:06.984Z,82.81
2022-12-26T13:29:45.097Z,82.59
2022-12-26T13:32:20.967Z,82.72
2022-12-26T13:34:49.323Z,82.98
2022-12-26T13:37:55.724Z,83.28
2022-12-26T13:40:29.636Z,83.25
2022-12-26T13:43:20.609Z,83.05
2022-12-26T13:45:57.421Z,83.30
2022-12-26T13:49:03.148Z,83.57
2022-12-26T13:51:49.668Z,83.23
2022-12-26T13:54:18.767Z,83.09
2022-12-26T13:57:25.776Z,83.52
2022-12-26T14:00:07.233Z,83.75
2022-12-26T14:03:22.639Z,83.11
2022-12-26T14:05:47.339Z,83.45
2022-12-26T14:08:28.190Z,83.32
2022-12-26T14:11:11.724Z,83.49
2022-12-26T14:14:04.414Z,82.96
2022-12-26T14:16:41.187Z,82.87
2022-12-26T14:19:18.221Z,83.09
2022-12-26T14:21:52.270Z,82.87
2022-12-26T14:24:30.510Z,83.06
2022-12-26T14:27:10.655Z,82.28
2022-12-26T14:29:47.212Z,82.53
2022-12-26T14:32:26.465Z,82.72
2022-12-26T14:35:03.385Z,83.01
2022-12-26T14:37:41.119Z,82.82
2022-12-26T14:40:24.108Z,82.94
2022-12-26T14:43:14.863Z,82.39
2022-12-26T14:45:51.092Z,82.53
2022-12-26T14:48:48.075Z,82.78
2022-12-26T14:51:39.198Z,82.65
2022-12-26T14:54:38.343Z,82.00
2022-12-26T14:57:43.524Z,81.86
2022-12-26T15:00:30.116Z,81.11
2022-12-26T15:03:43.503Z,81.39
2022-12-26T15:06:48.965Z,80.51
2022-12-26T15:09:51.785Z,80.16
2022-12-26T15:13:17.369Z,79.82
2022-12-26T15:16:01.089Z,79.77
2022-12-26T15:18:58.885Z,79.53
2022-12-26T15:21:42.974Z,79.82
2022-12-26T15:25:16.557Z,79.99
2022-12-26T15:27:40.568Z,80.98
2022-12-26T15:30:21.758Z,81.54
2022-12-26T15:32:58.274Z,82.33
2022-12-26T15:35:32.051Z,82.75
2022-12-26T15:38:14.006Z,82.88
2022-12-26T15:40:46.856Z,83.41
2022-12-26T15:43:29.828Z,84.29
2022-12-26T15:46:03.580Z,84.65
2022-12-26T15:48:44.196Z,85.10
2022-12-26T15:51:15.838Z,85.33
2022-12-26T15:53:57.638Z,85.68
2022-12-26T15:56:56.854Z,85.71
2022-12-26T15:59:46.831Z,86.44
2022-12-26T16:02:34.217Z,85.79
2022-12-26T16:05:21.561Z,86.15
2022-12-26T16:07:54.688Z,85.92
2022-12-26T16:10:31.925Z,86.58
2022-12-26T16:13:07.841Z,86.58
2022-12-26T16:15:36.951Z,86.96
2022-12-26T16:18:16.127Z,86.72
2022-12-26T16:21:02.465Z,86.60
2022-12-26T16:23:33.629Z,87.17
2022-12-26T16:26:02.830Z,87.10
2022-12-26T16:28:35.642Z,86.79
2022-12-26T16:31:04.563Z,86.49
2022-12-26T16:33:36.526Z,86.67
2022-12-26T16:36:05.618Z,86.47
2022-12-26T16:38:34.242Z,86.52
2022-12-26T16:41:05.106Z,86.35
2022-12-26T16:43:35.494Z,85.40
2022-12-26T16:46:06.220Z,85.72
2022-12-26T16:48:35.447Z,85.60
2022-12-26T16:51:06.284Z,85.33
2022-12-26T16:53:45.934Z,85.02
2022-12-26T16:56:29.481Z,84.98
2022-12-26T16:59:05.132Z,84.57
2022-12-26T17:01:34.356Z,85.31
2022-12-26T17:04:05.420Z,85.54
2022-12-26T17:06:34.803Z,84.76
2022-12-26T17:09:08.648Z,84.76
2022-12-26T17:11:38.859Z,84.50
2022-12-26T17:14:15.761Z,84.17
2022-12-26T17:16:44.495Z,83.80
2022-12-26T17:19:19.008Z,83.19
2022-12-26T17:22:26.476Z,83.79
2022-12-26T17:25:21.813Z,82.19
2022-12-26T17:28:23.027Z,81.60
2022-12-26T17:30:54.274Z,81.13
2022-12-26T17:33:23.759Z,80.85
2022-12-26T17:38:48.330Z,79.80
2022-12-26T17:41:17.947Z,80.06
2022-12-26T17:43:47.017Z,80.13
2022-12-26T17:46:18.543Z,79.67
2022-12-26T17:48:46.882Z,79.72
2022-12-26T17:51:17.915Z,79.28
2022-12-26T17:53:49.706Z,79.78
2022-12-26T17:56:21.019Z,78.81
2022-12-26T17:58:49.541Z,79.40
2022-12-26T18:01:21.925Z,79.51
2022-12-26T18:03:52.161Z,79.53
2022-12-26T18:06:21.908Z,79.69
2022-12-26T18:08:50.262Z,79.03
2022-12-26T18:11:18.861Z,77.81
2022-12-26T18:13:46.923Z,78.29
2022-12-26T18:16:19.634Z,78.08
2022-12-26T18:18:49.600Z,77.91
2022-12-26T18:21:18.078Z,78.33
2022-12-26T18:23:46.640Z,77.71
2022-12-26T18:26:19.664Z,78.12
2022-12-26T18:28:50.026Z,78.23
2022-12-26T18:31:20.322Z,78.81
2022-12-26T18:33:51.553Z,78.12
2022-12-26T18:36:20.114Z,77.85
2022-12-26T18:38:49.807Z,77.81
2022-12-26T18:41:20.422Z,77.79
2022-12-26T18:43:50.001Z,77.79
2022-12-26T18:46:20.843Z,77.70
2022-12-26T18:48:49.745Z,78.01
2022-12-26T18:51:19.331Z,78.25
2022-12-26T18:53:47.582Z,77.74
2022-12-26T18:56:18.404Z,76.67
2022-12-26T18:58:47.043Z,77.23
2022-12-26T19:01:18.083Z,76.02
2022-12-26T19:03:48.058Z,75.58
2022-12-26T19:06:17.750Z,75.37
2022-12-26T19:08:45.776Z,75.22
2022-12-26T19:11:15.325Z,74.83
2022-12-26T19:13:44.110Z,74.48
2022-12-26T19:16:12.869Z,74.54
2022-12-26T19:18:42.577Z,74.66
2022-12-26T19:21:16.551Z,74.72
2022-12-26T19:23:47.718Z,73.57
2022-12-26T19:26:17.655Z,73.26
2022-12-26T19:28:46.312Z,72.84
2022-12-26T19:31:16.522Z,72.67
2022-12-26T19:33:44.904Z,73.12
2022-12-26T19:36:14.495Z,73.01
2022-12-26T19:38:42.508Z,73.68
2022-12-26T19:41:12.857Z,73.52
2022-12-26T19:43:41.589Z,73.83
2022-12-26T19:46:11.607Z,73.93
2022-12-26T19:48:41.258Z,74.43
2022-12-26T19:51:11.444Z,74.47
2022-12-26T19:53:41.529Z,74.29
2022-12-26T19:56:10.437Z,74.58
2022-12-26T19:58:39.617Z,74.84
2022-12-26T20:01:08.723Z,74.18
2022-12-26T20:03:37.624Z,74.00
2022-12-26T20:06:10.219Z,74.84
2022-12-26T20:08:41.882Z,74.19
2022-12-26T20:11:14.810Z,74.77
2022-12-26T20:13:44.898Z,75.98
2022-12-26T20:16:45.823Z,76.12
2022-12-26T20:19:02.826Z,76.12
2022-12-26T20:21:32.417Z,76.11
2022-12-26T20:24:02.717Z,76.09
2022-12-26T20:26:31.707Z,76.00
2022-12-26T20:29:02.387Z,75.79
2022-12-26T20:31:32.202Z,75.04
2022-12-26T20:34:02.892Z,75.85
2022-12-26T20:36:33.335Z,75.91
2022-12-26T20:39:04.549Z,75.20
2022-12-26T20:41:32.875Z,73.96
2022-12-26T20:44:01.064Z,73.68
2022-12-26T20:46:32.008Z,73.72
2022-12-26T20:49:01.305Z,73.50
2022-12-26T20:51:36.496Z,73.88
2022-12-26T20:54:08.751Z,74.23
2022-12-26T20:56:37.521Z,74.10
2022-12-26T20:59:09.276Z,73.61
2022-12-26T21:01:39.374Z,73.62
2022-12-26T21:04:08.036Z,73.02
2022-12-26T21:06:38.091Z,71.85
2022-12-26T21:09:08.924Z,72.05
2022-12-26T21:11:39.968Z,72.22
2022-12-26T21:14:11.224Z,71.95
2022-12-26T21:16:42.730Z,72.34
2022-12-26T21:19:15.395Z,72.47
2022-12-26T21:21:48.323Z,72.85
2022-12-26T21:24:27.651Z,73.10
2022-12-26T21:26:57.361Z,73.04
2022-12-26T21:29:27.203Z,73.84
2022-12-26T21:31:56.081Z,73.22
2022-12-26T21:34:26.428Z,74.01
2022-12-26T21:37:12.938Z,73.78
2022-12-26T21:39:43.677Z,73.47
2022-12-26T21:42:12.406Z,73.67
2022-12-26T21:44:41.232Z,72.26
2022-12-26T21:47:09.497Z,71.56
2022-12-26T21:49:38.564Z,71.35
2022-12-26T21:52:11.340Z,71.30
2022-12-26T21:54:57.287Z,71.03
2022-12-26T21:57:30.944Z,71.06
2022-12-26T21:59:59.832Z,70.49
2022-12-26T22:02:48.640Z,70.01
2022-12-26T22:05:21.662Z,70.46
2022-12-26T22:07:57.980Z,69.66
2022-12-26T22:10:46.683Z,69.37
2022-12-26T22:13:16.237Z,67.82
2022-12-26T22:16:02.306Z,68.06
2022-12-26T22:18:31.725Z,67.59
2022-12-26T22:21:03.205Z,67.55
2022-12-26T22:23:31.982Z,68.35
2022-12-26T22:26:00.023Z,67.16
2022-12-26T22:28:30.544Z,67.44
2022-12-26T22:30:59.796Z,67.21
2022-12-26T22:33:29.394Z,67.81
2022-12-26T22:36:05.260Z,67.42
2022-12-26T22:38:34.977Z,67.66
2022-12-26T22:41:03.492Z,67.44
2022-12-26T22:43:33.953Z,67.91
2022-12-26T22:46:02.047Z,67.26
2022-12-26T22:48:32.222Z,66.22
2022-12-26T22:51:00.195Z,66.57
2022-12-26T22:53:31.132Z,66.65
2022-12-26T22:56:01.853Z,67.03
2022-12-26T22:58:34.233Z,66.30
2022-12-26T23:01:05.347Z,66.41
2022-12-26T23:03:35.014Z,65.90
2022-12-26T23:06:05.555Z,66.06
2022-12-26T23:08:34.820Z,65.70
2022-12-26T23:11:03.501Z,65.68
2022-12-26T23:13:36.306Z,65.35
2022-12-26T23:16:07.533Z,65.70
2022-12-26T23:18:56.902Z,65.52
2022-12-26T23:21:43.098Z,65.86
2022-12-26T23:24:14.537Z,65.38
2022-12-26T23:26:45.604Z,65.45
2022-12-26T23:29:37.856Z,65.12
2022-12-26T23:32:08.427Z,65.23
2022-12-26T23:34:39.135Z,65.54
2022-12-26T23:37:08.519Z,65.82
2022-12-26T23:39:37.196Z,65.70
2022-12-26T23:42:05.437Z,65.58
2022-12-26T23:44:35.588Z,65.93
2022-12-26T23:47:04.223Z,65.60
2022-12-26T23:49:35.127Z,66.03
2022-12-26T23:52:03.671Z,66.30
2022-12-26T23:54:32.292Z,66.66
2022-12-26T23:57:00.849Z,66.64
2022-12-26T23:59:30.413Z,66.42
